Time;durP1;ratioP1;P1;durP2;ratioP2;P2;SDS_P1;SDS_P2;PMS_P1;PMS_P2;Temp;Humidity;BMP_temperature;BMP_pressure;BME280_temperature;BME280_humidity;BME280_pressure;Samples;Min_cycle;Max_cycle;Signal;HPM_P1;HPM_P2
2023/05/01 00:00:32;;;;;;;29.40;10.80;;;;;;;4.26;69.65;100871.13;110421;1269;22547;-59
2023/05/01 00:03:18;;;;;;;28.90;11.70;;;;;;;4.22;69.82;100870.41;110411;1276;22127;-60
2023/05/01 00:05:48;;;;;;;35.30;12.10;;;;;;;4.21;69.81;100865.91;110374;1269;22403;-60
2023/05/01 00:08:19;;;;;;;33.50;12.50;;;;;;;4.18;69.70;100861.71;110380;1269;22987;-60
2023/05/01 00:10:50;;;;;;;31.80;11.20;;;;;;;4.13;69.85;100861.15;110351;1271;22228;-59
2023/05/01 00:13:23;;;;;;;31.90;12.10;;;;;;;4.10;69.81;100858.92;110393;1265;22339;-59
2023/05/01 00:15:54;;;;;;;30.30;12.90;;;;;;;4.06;69.86;100860.26;110403;1269;23168;-59
2023/05/01 00:18:25;;;;;;;37.20;12.70;;;;;;;4.02;69.92;100854.46;110402;1276;22304;-59
2023/05/01 00:20:56;;;;;;;33.00;13.10;;;;;;;4.00;70.08;100851.98;110375;1272;23341;-58
2023/05/01 00:23:26;;;;;;;32.20;12.20;;;;;;;3.96;70.11;100850.23;110411;1269;23005;-58
2023/05/01 00:25:57;;;;;;;35.90;15.10;;;;;;;3.92;70.20;100849.27;110404;1272;22268;-58
2023/05/01 00:28:28;;;;;;;36.70;15.50;;;;;;;3.90;70.36;100847.09;110403;1269;22330;-60
2023/05/01 00:31:00;;;;;;;37.90;16.50;;;;;;;3.92;70.43;100842.64;110440;1263;22890;-60
2023/05/01 00:33:31;;;;;;;35.50;15.60;;;;;;;3.92;70.45;100843.28;110436;1263;22364;-60
2023/05/01 00:36:02;;;;;;;39.00;18.60;;;;;;;3.87;70.47;100838.45;110408;1270;22267;-60
2023/05/01 00:38:33;;;;;;;46.00;20.60;;;;;;;3.83;70.62;100836.31;110413;1266;22305;-59
2023/05/01 00:41:04;;;;;;;53.00;23.00;;;;;;;3.79;70.69;100836.22;110402;1265;22792;-60
2023/05/01 00:43:35;;;;;;;60.40;26.80;;;;;;;3.75;70.83;100832.89;110426;1269;22215;-59
2023/05/01 00:46:06;;;;;;;62.10;27.60;;;;;;;3.70;70.84;100834.00;110467;1260;22197;-60
2023/05/01 00:48:37;;;;;;;59.90;26.60;;;;;;;3.64;70.98;100830.37;109140;1269;24318;-58
2023/05/01 00:51:09;;;;;;;60.10;25.30;;;;;;;3.62;71.08;100829.78;106338;1276;22533;-58
2023/05/01 00:53:42;;;;;;;57.00;24.00;;;;;;;3.56;71.25;100827.91;110407;1272;22243;-57
2023/05/01 00:56:13;;;;;;;54.10;22.60;;;;;;;3.50;71.42;100829.88;110434;1269;22185;-59
2023/05/01 00:58:45;;;;;;;44.10;18.70;;;;;;;3.43;71.44;100830.30;110415;1268;22239;-59
2023/05/01 01:01:16;;;;;;;48.80;20.60;;;;;;;3.36;71.50;100829.86;110373;1275;23431;-57
2023/05/01 01:03:47;;;;;;;42.30;18.90;;;;;;;3.31;71.63;100827.64;110389;1269;22341;-59
2023/05/01 01:06:30;;;;;;;43.50;18.10;;;;;;;3.26;71.65;100820.52;110412;1276;22648;-58
2023/05/01 01:09:12;;;;;;;41.70;16.70;;;;;;;3.23;71.68;100821.83;110440;1273;23020;-59
2023/05/01 01:11:53;;;;;;;37.50;16.00;;;;;;;3.20;71.78;100822.73;110410;1269;22229;-59
2023/05/01 01:14:32;;;;;;;43.50;14.90;;;;;;;3.17;72.03;100819.64;110441;1265;22155;-60
2023/05/01 01:17:19;;;;;;;33.30;14.40;;;;;;;3.13;71.96;100822.13;110392;1269;22205;-58
2023/05/01 01:20:14;;;;;;;39.10;15.00;;;;;;;3.08;72.06;100818.80;110422;1272;22264;-59
2023/05/01 01:22:50;;;;;;;39.60;15.40;;;;;;;3.04;72.29;100822.55;110404;1269;22305;-57
2023/05/01 01:26:06;;;;;;;40.30;15.60;;;;;;;3.02;72.55;100822.73;110440;1269;22680;-59
2023/05/01 01:29:13;;;;;;;39.90;15.10;;;;;;;3.01;72.48;100815.67;110420;1265;22141;-60
2023/05/01 01:31:54;;;;;;;37.60;14.30;;;;;;;2.98;72.58;100810.66;109919;1275;22443;-58
2023/05/01 01:34:33;;;;;;;33.20;14.10;;;;;;;2.95;72.67;100816.37;109935;1271;22273;-59
2023/05/01 01:37:11;;;;;;;34.80;14.00;;;;;;;2.91;72.71;100814.92;109927;1275;22215;-59
2023/05/01 01:39:50;;;;;;;36.40;13.80;;;;;;;2.87;72.56;100811.02;109916;1272;22193;-60
2023/05/01 01:42:26;;;;;;;34.60;13.70;;;;;;;2.82;73.14;100814.16;109924;1278;22246;-56
2023/05/01 01:45:01;;;;;;;30.40;14.70;;;;;;;2.77;73.03;100814.23;109921;1276;22383;-60
2023/05/01 01:47:35;;;;;;;32.90;15.00;;;;;;;2.74;73.06;100811.59;109931;1269;23618;-59
2023/05/01 01:50:11;;;;;;;35.60;14.60;;;;;;;2.71;73.00;100807.21;109954;1268;22376;-59
2023/05/01 01:52:45;;;;;;;34.30;13.40;;;;;;;2.70;73.07;100809.20;109919;1275;23019;-59
2023/05/01 01:55:18;;;;;;;33.30;13.80;;;;;;;2.67;73.22;100807.34;109926;1270;22294;-59
2023/05/01 01:57:50;;;;;;;37.70;14.30;;;;;;;2.65;73.33;100810.35;109916;1273;22346;-60
2023/05/01 02:00:22;;;;;;;35.60;13.50;;;;;;;2.65;73.58;100803.98;109945;1281;23004;-60
2023/05/01 02:02:55;;;;;;;34.40;13.60;;;;;;;2.64;73.83;100809.02;109939;1273;22216;-60
2023/05/01 02:05:28;;;;;;;37.30;12.70;;;;;;;2.61;74.04;100812.13;109907;1270;22212;-59
2023/05/01 02:08:02;;;;;;;31.70;13.00;;;;;;;2.59;74.08;100806.96;109958;1276;22260;-59
2023/05/01 02:10:35;;;;;;;33.30;13.00;;;;;;;2.56;74.05;100807.14;110397;1272;23158;-60
2023/05/01 02:13:07;;;;;;;30.20;12.40;;;;;;;2.52;74.05;100810.98;110373;1269;22142;-59
2023/05/01 02:15:40;;;;;;;32.20;12.70;;;;;;;2.47;74.06;100811.17;110427;1273;22997;-58
2023/05/01 02:18:12;;;;;;;26.60;12.10;;;;;;;2.44;74.08;100805.00;109561;1266;22515;-59
2023/05/01 02:20:44;;;;;;;27.90;11.50;;;;;;;2.42;74.03;100801.55;110415;1270;22279;-59
2023/05/01 02:23:15;;;;;;;30.80;12.20;;;;;;;2.38;74.00;100797.50;110406;1266;22284;-59
2023/05/01 02:25:48;;;;;;;32.20;11.30;;;;;;;2.34;74.06;100795.66;110394;1272;22223;-58
2023/05/01 02:28:24;;;;;;;29.40;10.50;;;;;;;2.31;74.02;100792.06;110407;1266;22346;-60
2023/05/01 02:30:56;;;;;;;28.60;12.20;;;;;;;2.29;74.06;100791.23;110412;1269;22886;-59
2023/05/01 02:33:27;;;;;;;31.20;12.00;;;;;;;2.26;74.14;100795.27;110394;1269;22166;-58
2023/05/01 02:35:57;;;;;;;28.60;12.30;;;;;;;2.23;74.18;100790.03;109052;1270;22531;-58
2023/05/01 02:38:29;;;;;;;28.70;12.30;;;;;;;2.19;74.33;100786.77;106283;1275;24044;-56
2023/05/01 02:41:00;;;;;;;35.80;13.40;;;;;;;2.16;74.35;100784.75;110367;1273;23238;-59
2023/05/01 02:43:34;;;;;;;31.90;12.60;;;;;;;2.12;74.52;100782.67;110375;1266;22370;-60
2023/05/01 02:46:09;;;;;;;32.20;12.30;;;;;;;2.06;74.66;100780.77;110408;1269;22170;-59
2023/05/01 02:48:40;;;;;;;35.60;15.40;;;;;;;2.02;74.77;100783.23;110369;1270;22548;-59
2023/05/01 02:51:11;;;;;;;33.40;14.70;;;;;;;2.00;74.78;100782.30;110414;1276;22145;-59
2023/05/01 02:53:43;;;;;;;34.30;14.40;;;;;;;1.98;74.87;100782.64;110348;1272;22441;-60
2023/05/01 02:56:14;;;;;;;39.10;15.10;;;;;;;1.94;74.78;100781.73;110373;1269;22151;-59
2023/05/01 02:58:45;;;;;;;34.60;14.90;;;;;;;1.91;74.97;100779.17;110402;1270;22416;-59
2023/05/01 03:01:16;;;;;;;31.40;13.10;;;;;;;1.88;75.02;100778.27;110394;1273;22123;-60
2023/05/01 03:03:47;;;;;;;32.10;13.70;;;;;;;1.85;75.03;100778.83;110362;1269;22361;-59
2023/05/01 03:06:18;;;;;;;29.90;12.40;;;;;;;1.84;75.25;100780.90;110407;1276;22168;-59
2023/05/01 03:08:49;;;;;;;33.70;13.50;;;;;;;1.82;75.31;100782.32;110434;1269;22136;-58
2023/05/01 03:11:20;;;;;;;33.60;13.90;;;;;;;1.80;75.38;100778.94;110427;1268;22218;-60
2023/05/01 03:13:50;;;;;;;28.90;13.40;;;;;;;1.79;75.36;100779.34;110361;1272;22877;-59
2023/05/01 03:16:21;;;;;;;30.70;12.40;;;;;;;1.78;75.51;100781.89;110421;1269;22224;-59
2023/05/01 03:18:52;;;;;;;35.30;14.20;;;;;;;1.75;75.60;100785.77;110382;1269;22180;-59
2023/05/01 03:21:23;;;;;;;31.60;13.10;;;;;;;1.73;75.76;100780.90;110347;1276;22298;-60
2023/05/01 03:23:54;;;;;;;36.10;14.00;;;;;;;1.69;75.75;100780.30;110412;1269;22234;-60
2023/05/01 03:26:25;;;;;;;35.80;14.10;;;;;;;1.67;75.94;100782.13;110395;1273;22613;-59
2023/05/01 03:28:56;;;;;;;29.10;12.50;;;;;;;1.66;76.00;100779.93;110371;1266;22435;-59
2023/05/01 03:31:27;;;;;;;35.00;13.60;;;;;;;1.65;75.91;100774.52;110369;1271;22384;-59
2023/05/01 03:33:57;;;;;;;31.10;12.50;;;;;;;1.65;75.99;100774.91;110424;1260;22958;-60
2023/05/01 03:36:28;;;;;;;33.10;13.40;;;;;;;1.63;75.95;100773.73;110390;1276;22263;-60
2023/05/01 03:38:59;;;;;;;31.50;13.40;;;;;;;1.61;76.10;100768.41;110403;1264;22326;-60
2023/05/01 03:41:30;;;;;;;30.20;12.00;;;;;;;1.58;76.19;100767.25;110365;1266;22491;-59
2023/05/01 03:44:01;;;;;;;31.50;12.10;;;;;;;1.57;76.22;100773.64;110349;1264;22910;-58
2023/05/01 03:46:32;;;;;;;29.90;12.90;;;;;;;1.56;76.35;100770.90;110395;1261;23083;-60
2023/05/01 03:49:03;;;;;;;27.10;12.00;;;;;;;1.54;76.29;100772.64;110378;1269;22262;-58
2023/05/01 03:51:34;;;;;;;31.70;12.50;;;;;;;1.51;76.66;100770.70;110404;1269;22353;-60
2023/05/01 03:54:05;;;;;;;29.20;11.20;;;;;;;1.50;76.75;100771.89;110361;1273;22906;-60
2023/05/01 03:56:37;;;;;;;30.00;12.00;;;;;;;1.48;76.68;100777.01;110415;1269;22492;-59
2023/05/01 03:59:08;;;;;;;31.90;12.70;;;;;;;1.47;76.87;100775.52;110367;1264;22343;-59
2023/05/01 04:01:39;;;;;;;27.40;11.70;;;;;;;1.46;77.03;100773.88;110370;1266;22436;-59
2023/05/01 04:04:10;;;;;;;28.20;12.00;;;;;;;1.47;77.39;100773.80;110341;1270;22264;-60
2023/05/01 04:06:40;;;;;;;30.40;12.40;;;;;;;1.48;77.35;100775.83;110370;1263;22372;-59
2023/05/01 04:09:11;;;;;;;27.70;12.40;;;;;;;1.47;77.43;100773.24;110356;1276;22209;-60
2023/05/01 04:11:43;;;;;;;33.90;13.50;;;;;;;1.47;77.55;100771.83;110358;1270;22308;-60
2023/05/01 04:14:13;;;;;;;29.70;12.70;;;;;;;1.47;77.75;100767.58;110366;1267;22252;-60
2023/05/01 04:16:44;;;;;;;31.80;12.10;;;;;;;1.49;77.92;100768.67;110370;1261;22633;-59
2023/05/01 04:19:15;;;;;;;29.20;11.60;;;;;;;1.53;78.13;100764.63;110365;1260;22217;-59
2023/05/01 04:21:46;;;;;;;30.80;12.00;;;;;;;1.58;78.25;100755.71;110340;1268;22371;-60
2023/05/01 04:24:17;;;;;;;28.90;10.70;;;;;;;1.66;78.31;100758.95;110387;1276;22191;-59
2023/05/01 04:26:48;;;;;;;23.00;9.40;;;;;;;1.76;78.62;100759.64;110392;1266;22141;-59
2023/05/01 04:29:19;;;;;;;25.60;9.10;;;;;;;1.88;79.30;100756.63;110411;1269;22117;-59
2023/05/01 04:31:50;;;;;;;25.00;9.40;;;;;;;1.98;79.32;100759.27;110360;1269;22154;-60
2023/05/01 04:34:21;;;;;;;26.10;9.80;;;;;;;2.07;79.78;100757.45;110341;1267;22187;-61
2023/05/01 04:36:52;;;;;;;29.10;9.60;;;;;;;2.17;79.86;100762.23;110309;1269;22395;-60
2023/05/01 04:39:23;;;;;;;32.70;11.00;;;;;;;2.26;79.86;100757.48;110344;1268;23165;-59
2023/05/01 04:41:53;;;;;;;34.60;12.90;;;;;;;2.35;80.31;100760.61;110378;1261;22282;-57
2023/05/01 04:44:26;;;;;;;36.00;14.10;;;;;;;2.44;80.57;100763.42;110346;1260;22249;-60
2023/05/01 04:46:57;;;;;;;34.30;12.40;;;;;;;2.53;80.93;100762.53;110154;1260;22521;-59
2023/05/01 04:49:28;;;;;;;30.20;12.50;;;;;;;2.63;80.89;100762.41;106308;1270;22517;-58
2023/05/01 04:51:59;;;;;;;30.00;11.50;;;;;;;2.77;81.02;100765.23;106334;1260;25391;-58
2023/05/01 04:54:30;;;;;;;26.40;10.50;;;;;;;2.90;81.20;100763.01;106299;1260;22543;-59
2023/05/01 04:57:02;;;;;;;30.20;12.40;;;;;;;3.02;81.37;100763.16;106363;1276;24367;-58
2023/05/01 04:59:33;;;;;;;31.40;11.90;;;;;;;3.12;81.61;100765.63;106263;1269;22660;-58
2023/05/01 05:02:04;;;;;;;33.70;11.00;;;;;;;3.26;81.54;100757.69;106281;1274;22526;-59
2023/05/01 05:04:34;;;;;;;32.70;12.40;;;;;;;3.41;81.54;100757.70;106311;1274;25362;-59
2023/05/01 05:07:05;;;;;;;34.20;12.40;;;;;;;3.54;81.70;100759.56;106335;1269;22570;-58
2023/05/01 05:09:36;;;;;;;29.30;11.40;;;;;;;3.68;81.68;100761.69;106341;1276;22521;-58
2023/05/01 05:12:08;;;;;;;30.80;11.40;;;;;;;3.83;81.53;100761.52;106325;1270;24382;-58
2023/05/01 05:14:38;;;;;;;34.60;10.90;;;;;;;3.94;81.52;100762.65;110389;1270;22219;-57
2023/05/01 05:17:10;;;;;;;34.70;11.80;;;;;;;4.09;81.44;100762.48;110369;1267;22174;-59
2023/05/01 05:19:40;;;;;;;36.20;12.10;;;;;;;4.24;81.22;100758.80;110371;1270;22931;-57
2023/05/01 05:22:12;;;;;;;35.00;13.50;;;;;;;4.36;81.21;100759.59;110374;1272;22189;-59
2023/05/01 05:24:43;;;;;;;32.80;11.80;;;;;;;4.49;81.26;100760.20;110356;1269;22309;-58
2023/05/01 05:27:14;;;;;;;27.30;9.00;;;;;;;4.66;81.13;100757.34;110400;1276;22655;-59
2023/05/01 05:29:45;;;;;;;28.10;9.90;;;;;;;4.82;80.91;100760.54;110333;1261;22196;-59
2023/05/01 05:32:16;;;;;;;28.20;9.80;;;;;;;4.98;80.66;100755.93;110367;1270;22285;-57
2023/05/01 05:34:47;;;;;;;33.70;11.80;;;;;;;5.14;80.42;100750.52;110387;1260;22311;-58
2023/05/01 05:37:18;;;;;;;28.60;9.60;;;;;;;5.28;80.30;100746.48;110386;1269;22194;-59
2023/05/01 05:39:49;;;;;;;32.00;9.90;;;;;;;5.41;80.27;100745.08;110379;1260;22366;-59
2023/05/01 05:42:20;;;;;;;31.00;10.20;;;;;;;5.53;80.23;100745.56;110376;1265;22239;-59
2023/05/01 05:44:51;;;;;;;29.20;10.70;;;;;;;5.68;80.37;100747.10;110351;1267;22891;-59
2023/05/01 05:47:22;;;;;;;26.30;9.50;;;;;;;5.83;80.22;100747.67;110353;1269;22327;-58
2023/05/01 05:49:54;;;;;;;31.00;11.00;;;;;;;5.97;79.98;100745.75;110350;1265;22124;-58
2023/05/01 05:52:25;;;;;;;28.60;10.80;;;;;;;6.11;79.82;100742.70;110259;1260;22220;-60
2023/05/01 05:54:55;;;;;;;29.70;10.80;;;;;;;6.25;79.66;100743.82;110342;1269;22149;-56
2023/05/01 05:57:27;;;;;;;31.00;12.60;;;;;;;6.38;79.14;100742.52;110394;1260;22179;-58
2023/05/01 05:59:57;;;;;;;27.40;10.10;;;;;;;6.51;79.03;100750.14;110337;1270;22168;-57
2023/05/01 06:02:28;;;;;;;33.10;10.90;;;;;;;6.63;78.86;100743.77;110375;1265;22968;-58
2023/05/01 06:04:59;;;;;;;27.30;9.60;;;;;;;6.75;79.02;100744.38;110319;1268;22194;-57
2023/05/01 06:07:30;;;;;;;29.70;10.00;;;;;;;6.86;78.81;100744.30;110324;1273;22323;-55
2023/05/01 06:10:04;;;;;;;26.60;9.10;;;;;;;6.96;78.60;100741.52;110374;1268;22467;-55
2023/05/01 06:12:34;;;;;;;24.30;8.50;;;;;;;7.08;78.52;100742.45;110379;1268;23453;-56
2023/05/01 06:15:07;;;;;;;25.90;9.50;;;;;;;7.20;78.72;100742.46;110358;1276;22274;-54
2023/05/01 06:17:38;;;;;;;27.00;9.70;;;;;;;7.32;78.41;100742.09;110383;1266;22391;-58
2023/05/01 06:20:12;;;;;;;25.40;8.80;;;;;;;7.43;78.03;100744.98;110343;1268;23100;-54
2023/05/01 06:22:43;;;;;;;24.00;8.50;;;;;;;7.52;77.68;100746.12;110344;1267;22982;-55
2023/05/01 06:25:15;;;;;;;30.10;10.00;;;;;;;7.64;77.77;100739.29;110372;1268;23021;-55
2023/05/01 06:27:45;;;;;;;24.20;8.80;;;;;;;7.78;77.66;100740.89;110373;1260;22360;-57
2023/05/01 06:30:18;;;;;;;22.80;7.40;;;;;;;7.91;77.12;100738.70;110347;1269;22787;-57
2023/05/01 06:32:49;;;;;;;20.50;7.50;;;;;;;8.02;76.63;100740.64;110294;1260;22395;-57
2023/05/01 06:35:20;;;;;;;22.30;7.50;;;;;;;8.13;76.27;100738.11;110383;1269;22217;-58
2023/05/01 06:37:51;;;;;;;24.70;8.60;;;;;;;8.24;75.92;100738.67;110381;1268;22881;-58
2023/05/01 06:40:22;;;;;;;23.50;7.50;;;;;;;8.34;75.70;100737.78;110356;1268;22978;-56
2023/05/01 06:42:53;;;;;;;23.50;8.80;;;;;;;8.46;75.94;100731.39;110342;1260;22435;-57
2023/05/01 06:45:24;;;;;;;27.00;8.40;;;;;;;8.59;75.23;100733.20;108611;1276;25340;-58
2023/05/01 06:47:55;;;;;;;24.60;8.80;;;;;;;8.70;74.97;100730.41;106387;1273;23939;-55
2023/05/01 06:50:27;;;;;;;27.10;9.20;;;;;;;8.81;75.09;100727.63;106375;1276;27483;-56
2023/05/01 06:52:59;;;;;;;23.90;8.70;;;;;;;8.93;74.76;100722.45;106239;1260;25718;-57
2023/05/01 06:55:32;;;;;;;23.20;6.40;;;;;;;9.06;74.24;100723.16;110366;1268;23139;-57
2023/05/01 06:58:03;;;;;;;24.70;7.90;;;;;;;9.22;74.15;100722.08;110388;1269;22416;-57
2023/05/01 07:00:35;;;;;;;26.00;6.50;;;;;;;9.35;73.86;100719.86;110334;1276;22183;-58
2023/05/01 07:03:06;;;;;;;20.60;7.10;;;;;;;9.48;72.78;100715.27;110353;1269;22164;-58
2023/05/01 07:05:39;;;;;;;23.10;6.30;;;;;;;9.63;72.63;100712.27;110345;1260;22454;-58
2023/05/01 07:08:10;;;;;;;19.60;6.40;;;;;;;9.75;71.71;100711.48;110359;1268;23288;-58
2023/05/01 07:10:41;;;;;;;20.60;6.60;;;;;;;9.88;70.86;100707.75;110334;1268;22391;-57
2023/05/01 07:13:12;;;;;;;19.90;5.80;;;;;;;9.99;70.70;100707.95;110357;1265;22958;-57
2023/05/01 07:15:42;;;;;;;22.40;6.30;;;;;;;10.12;70.12;100705.64;110280;1260;22241;-56
2023/05/01 07:18:13;;;;;;;26.10;8.30;;;;;;;10.23;70.16;100706.04;110261;1261;22386;-57
2023/05/01 07:20:45;;;;;;;21.00;6.60;;;;;;;10.33;69.63;100705.20;110264;1268;22236;-57
2023/05/01 07:23:16;;;;;;;18.70;5.10;;;;;;;10.45;69.48;100703.77;110268;1268;22211;-56
2023/05/01 07:25:47;;;;;;;22.60;5.50;;;;;;;10.55;68.61;100701.54;110311;1260;22834;-59
2023/05/01 07:28:19;;;;;;;25.50;6.30;;;;;;;10.65;67.86;100698.48;110337;1261;23002;-59
2023/05/01 07:30:50;;;;;;;16.40;4.80;;;;;;;10.76;67.68;100694.65;110367;1253;22283;-59
2023/05/01 07:33:22;;;;;;;18.30;5.70;;;;;;;10.88;67.73;100693.42;110330;1260;22331;-58
2023/05/01 07:35:53;;;;;;;18.10;3.80;;;;;;;11.00;67.04;100693.17;108677;1269;22528;-58
2023/05/01 07:38:25;;;;;;;15.50;4.60;;;;;;;11.12;66.10;100690.17;106309;1260;22531;-57
2023/05/01 07:40:56;;;;;;;18.10;5.30;;;;;;;11.25;65.72;100690.42;110325;1268;23214;-59
2023/05/01 07:43:26;;;;;;;17.60;4.60;;;;;;;11.36;65.39;100685.66;110342;1261;22227;-58
2023/05/01 07:45:59;;;;;;;15.90;4.10;;;;;;;11.48;64.78;100683.58;110355;1260;23210;-55
2023/05/01 07:48:30;;;;;;;16.80;4.30;;;;;;;11.60;64.05;100687.29;110390;1268;22164;-57
2023/05/01 07:51:05;;;;;;;17.40;3.50;;;;;;;11.71;62.96;100687.80;110391;1269;22386;-59
2023/05/01 07:53:36;;;;;;;14.20;3.70;;;;;;;11.80;62.94;100688.52;110346;1260;22876;-59
2023/05/01 07:56:10;;;;;;;10.70;2.90;;;;;;;11.89;62.20;100684.80;110363;1265;22338;-58
2023/05/01 07:58:41;;;;;;;15.20;3.70;;;;;;;11.97;61.54;100682.36;110016;1268;22523;-56
2023/05/01 08:01:13;;;;;;;18.30;4.70;;;;;;;12.08;61.52;100678.67;106535;1270;24319;-58
2023/05/01 08:03:44;;;;;;;15.40;3.70;;;;;;;12.19;61.33;100676.59;106568;1270;23108;-57
2023/05/01 08:06:15;;;;;;;14.50;3.50;;;;;;;12.29;61.02;100677.13;106575;1270;22519;-57
2023/05/01 08:08:46;;;;;;;14.40;3.80;;;;;;;12.38;60.36;100676.30;106576;1269;22514;-56
2023/05/01 08:11:17;;;;;;;13.90;3.10;;;;;;;12.50;60.32;100677.64;106413;1272;22516;-57
2023/05/01 08:13:48;;;;;;;14.70;4.30;;;;;;;12.58;59.81;100673.13;106494;1276;25756;-61
2023/05/01 08:16:19;;;;;;;13.80;3.60;;;;;;;12.66;58.58;100671.60;106562;1265;24199;-62
2023/05/01 08:18:54;;;;;;;14.10;3.60;;;;;;;12.72;58.21;100672.21;106518;1260;22626;-59
2023/05/01 08:21:25;;;;;;;13.60;3.10;;;;;;;12.76;58.02;100671.58;110350;1269;23099;-64
2023/05/01 08:23:58;;;;;;;22.20;7.40;;;;;;;12.82;57.62;100668.67;110356;1260;23031;-59
2023/05/01 08:26:29;;;;;;;16.60;3.90;;;;;;;12.90;57.92;100668.19;110373;1270;22378;-60
2023/05/01 08:29:00;;;;;;;16.00;4.70;;;;;;;12.97;57.77;100669.98;110320;1262;22201;-61
2023/05/01 08:31:30;;;;;;;16.10;4.40;;;;;;;13.06;57.38;100663.36;110278;1265;22575;-61
2023/05/01 08:34:02;;;;;;;14.90;3.50;;;;;;;13.12;57.05;100664.75;110343;1260;22875;-60
2023/05/01 08:36:35;;;;;;;26.40;6.90;;;;;;;13.24;57.10;100658.96;110351;1260;24199;-61
2023/05/01 08:39:08;;;;;;;15.10;3.90;;;;;;;13.34;55.91;100657.17;110367;1268;22374;-61
2023/05/01 08:41:40;;;;;;;17.10;4.00;;;;;;;13.40;55.33;100655.63;110337;1268;23465;-63
2023/05/01 08:44:13;;;;;;;16.30;3.80;;;;;;;13.47;54.88;100653.89;110310;1260;22944;-62
2023/05/01 08:46:50;;;;;;;17.30;4.60;;;;;;;13.52;55.06;100654.06;110319;1265;22356;-60
2023/05/01 08:49:25;;;;;;;13.90;3.80;;;;;;;13.59;54.36;100653.95;110347;1268;22438;-60
2023/05/01 08:51:56;;;;;;;12.60;2.80;;;;;;;13.67;54.40;100658.70;110359;1269;22219;-61
2023/05/01 08:54:29;;;;;;;18.20;4.80;;;;;;;13.71;54.09;100659.63;110338;1267;23049;-61
2023/05/01 08:57:03;;;;;;;13.60;3.50;;;;;;;13.75;53.02;100650.89;110298;1268;22150;-61
2023/05/01 08:59:36;;;;;;;13.10;4.20;;;;;;;13.82;53.35;100649.15;110337;1263;22901;-63
2023/05/01 09:02:08;;;;;;;14.10;2.90;;;;;;;13.89;53.37;100641.43;110378;1265;22947;-62
2023/05/01 09:04:40;;;;;;;14.00;2.60;;;;;;;13.99;52.74;100637.61;110345;1268;22202;-62
2023/05/01 09:07:11;;;;;;;10.30;2.60;;;;;;;14.10;52.80;100633.75;110372;1265;22634;-61
2023/05/01 09:09:43;;;;;;;12.60;2.20;;;;;;;14.15;52.13;100629.63;110378;1260;22155;-61
2023/05/01 09:12:25;;;;;;;17.50;2.90;;;;;;;14.21;51.69;100624.89;110353;1269;22195;-61
2023/05/01 09:14:57;;;;;;;12.10;2.40;;;;;;;14.28;50.97;100623.55;110307;1270;23113;-60
2023/05/01 09:17:30;;;;;;;14.70;3.80;;;;;;;14.36;50.93;100618.94;110365;1269;22242;-61
2023/05/01 09:20:04;;;;;;;18.50;3.70;;;;;;;14.42;50.72;100617.11;110393;1262;22249;-62
2023/05/01 09:22:36;;;;;;;14.40;3.80;;;;;;;14.50;50.33;100615.85;110343;1272;22390;-61
2023/05/01 09:25:10;;;;;;;12.20;2.80;;;;;;;14.56;49.87;100616.06;110360;1269;22312;-64
2023/05/01 09:27:41;;;;;;;14.40;3.50;;;;;;;14.62;49.95;100613.96;110395;1260;22991;-62
2023/05/01 09:30:31;;;;;;;15.00;3.30;;;;;;;14.73;49.31;100615.33;110382;1276;22226;-61
2023/05/01 09:33:13;;;;;;;21.20;6.40;;;;;;;14.80;49.15;100602.27;110387;1265;22239;-61
2023/05/01 09:35:58;;;;;;;19.30;5.90;;;;;;;14.82;49.10;100594.86;110370;1269;22218;-62
2023/05/01 09:38:29;;;;;;;17.60;5.60;;;;;;;14.83;48.48;100595.79;110359;1268;22191;-62
2023/05/01 09:41:06;;;;;;;12.50;3.10;;;;;;;14.84;48.11;100601.02;110378;1268;22157;-61
2023/05/01 09:43:36;;;;;;;14.00;2.80;;;;;;;14.91;48.22;100596.56;110360;1264;22488;-61
2023/05/01 09:46:11;;;;;;;12.70;3.00;;;;;;;14.97;47.69;100591.04;110362;1273;23277;-60
2023/05/01 09:48:53;;;;;;;14.50;3.10;;;;;;;14.99;47.44;100584.60;110401;1269;22904;-62
2023/05/01 09:51:27;;;;;;;14.60;3.50;;;;;;;15.02;47.30;100581.91;110317;1276;22210;-61
2023/05/01 09:53:59;;;;;;;12.60;2.40;;;;;;;15.07;47.25;100580.51;110364;1268;22377;-61
2023/05/01 09:56:32;;;;;;;9.00;1.70;;;;;;;15.12;46.46;100581.81;110368;1269;22996;-62
2023/05/01 09:59:24;;;;;;;12.40;2.10;;;;;;;15.15;46.26;100580.21;110404;1267;22286;-61
2023/05/01 10:01:55;;;;;;;9.60;1.80;;;;;;;15.21;45.41;100580.08;110347;1268;22241;-62
2023/05/01 10:04:32;;;;;;;9.10;1.90;;;;;;;15.29;45.93;100576.34;110474;1268;22275;-62
2023/05/01 10:07:14;;;;;;;18.40;2.60;;;;;;;15.40;45.99;100571.70;110398;1269;23743;-62
2023/05/01 10:09:45;;;;;;;17.80;4.70;;;;;;;15.50;45.78;100571.62;110350;1260;22350;-62
2023/05/01 10:12:25;;;;;;;20.80;4.90;;;;;;;15.56;45.09;100565.19;110381;1268;22139;-61
2023/05/01 10:14:57;;;;;;;20.20;5.40;;;;;;;15.56;44.77;100568.32;110351;1270;22415;-62
2023/05/01 10:17:28;;;;;;;13.40;3.10;;;;;;;15.61;45.18;100561.27;110409;1268;22291;-62
2023/05/01 10:19:59;;;;;;;12.60;2.90;;;;;;;15.62;44.20;100552.42;110369;1268;23045;-62
2023/05/01 10:22:30;;;;;;;10.40;1.80;;;;;;;15.65;44.29;100550.59;110329;1265;22304;-62
2023/05/01 10:25:01;;;;;;;10.30;1.80;;;;;;;15.78;44.04;100540.05;110373;1260;22315;-63
2023/05/01 10:27:33;;;;;;;17.70;5.30;;;;;;;15.87;44.01;100534.27;110369;1265;22337;-63
2023/05/01 10:30:06;;;;;;;19.90;7.80;;;;;;;15.94;43.56;100529.27;110340;1268;22423;-63
2023/05/01 10:32:38;;;;;;;17.70;4.50;;;;;;;15.98;42.61;100523.39;110366;1262;22218;-62
2023/05/01 10:35:14;;;;;;;20.10;5.70;;;;;;;16.00;42.83;100518.48;110345;1254;22137;-61
2023/05/01 10:37:49;;;;;;;21.80;4.60;;;;;;;16.08;42.52;100517.11;110365;1268;22225;-61
2023/05/01 10:40:50;;;;;;;17.30;4.00;;;;;;;16.17;42.57;100514.65;110378;1268;22173;-59
2023/05/01 10:43:27;;;;;;;16.30;4.80;;;;;;;16.28;42.81;100518.15;110346;1268;23024;-66
2023/05/01 10:46:30;;;;;;;11.50;3.10;;;;;;;16.35;42.42;100517.69;110355;1268;22247;-61
2023/05/01 10:49:01;;;;;;;8.80;1.50;;;;;;;16.45;42.15;100513.42;110395;1260;22889;-61
2023/05/01 10:51:32;;;;;;;8.30;2.00;;;;;;;16.51;42.17;100505.46;110409;1276;23651;-62
2023/05/01 10:54:24;;;;;;;10.50;1.90;;;;;;;16.55;41.52;100503.15;110375;1268;22163;-61
2023/05/01 10:56:57;;;;;;;10.80;1.80;;;;;;;16.57;41.54;100500.89;110380;1268;22952;-62
2023/05/01 10:59:28;;;;;;;19.70;7.70;;;;;;;16.60;41.20;100493.26;110340;1268;22198;-61
2023/05/01 11:01:59;;;;;;;15.00;4.30;;;;;;;16.60;40.50;100490.74;110369;1268;22270;-61
2023/05/01 11:04:52;;;;;;;14.40;3.20;;;;;;;16.60;40.54;100489.30;110392;1265;22199;-61
2023/05/01 11:07:27;;;;;;;12.70;2.80;;;;;;;16.63;40.83;100486.18;110390;1268;22225;-62
2023/05/01 11:09:57;;;;;;;7.40;1.90;;;;;;;16.69;40.82;100484.94;110384;1268;22360;-61
2023/05/01 11:12:50;;;;;;;10.30;1.70;;;;;;;16.77;40.10;100479.48;110412;1276;22388;-59
2023/05/01 11:15:34;;;;;;;12.30;1.70;;;;;;;16.90;40.29;100475.61;110399;1276;22160;-59
2023/05/01 11:18:06;;;;;;;11.40;2.40;;;;;;;17.02;40.10;100471.46;110450;1260;22955;-59
2023/05/01 11:20:51;;;;;;;11.10;1.60;;;;;;;17.13;39.78;100468.45;110331;1261;22323;-60
2023/05/01 11:23:24;;;;;;;10.20;1.80;;;;;;;17.25;39.28;100468.19;110373;1269;22189;-61
2023/05/01 11:26:05;;;;;;;7.50;1.50;;;;;;;17.28;38.71;100461.20;108102;1268;2961882;-59
2023/05/01 11:28:38;;;;;;;10.00;1.60;;;;;;;17.36;38.39;100461.67;110398;1263;22393;-59
2023/05/01 11:31:09;;;;;;;7.20;1.40;;;;;;;17.46;38.02;100452.69;110384;1269;22423;-59
2023/05/01 11:33:40;;;;;;;7.70;1.40;;;;;;;17.49;37.98;100446.17;110373;1268;22944;-61
2023/05/01 11:36:11;;;;;;;10.70;1.60;;;;;;;17.56;37.32;100445.48;110406;1268;22387;-60